sensor_id;sensor_type;location;lat;lon;timestamp;pressure;altitude;pressure_sealevel;temperature;humidity
65280;BME280;51878;55.748;48.742;2022-12-10T00:01:13;100014.38;;;-8.68;91.88
65280;BME280;51878;55.748;48.742;2022-12-10T00:03:41;100012.63;;;-8.69;92.02
65280;BME280;51878;55.748;48.742;2022-12-10T00:06:12;99973.13;;;-8.93;92.58
65280;BME280;51878;55.748;48.742;2022-12-10T00:08:39;99963.03;;;-9.05;92.00
65280;BME280;51878;55.748;48.742;2022-12-10T00:11:08;100010.28;;;-8.77;91.66
65280;BME280;51878;55.748;48.742;2022-12-10T00:13:37;99987.19;;;-8.94;91.78
65280;BME280;51878;55.748;48.742;2022-12-10T00:16:06;100006.75;;;-8.78;92.11
65280;BME280;51878;55.748;48.742;2022-12-10T00:18:34;100015.53;;;-8.77;91.75
65280;BME280;51878;55.748;48.742;2022-12-10T00:21:13;99943.50;;;-9.23;92.25
65280;BME280;51878;55.748;48.742;2022-12-10T00:23:41;99998.97;;;-8.79;92.57
65280;BME280;51878;55.748;48.742;2022-12-10T00:26:19;99969.41;;;-9.12;92.61
65280;BME280;51878;55.748;48.742;2022-12-10T00:28:47;99990.84;;;-9.00;93.00
65280;BME280;51878;55.748;48.742;2022-12-10T00:31:21;100026.94;;;-8.78;92.70
65280;BME280;51878;55.748;48.742;2022-12-10T00:33:49;99912.34;;;-9.34;93.70
65280;BME280;51878;55.748;48.742;2022-12-10T00:36:20;99959.59;;;-9.07;94.06
65280;BME280;51878;55.748;48.742;2022-12-10T00:38:48;99990.84;;;-9.00;93.93
65280;BME280;51878;55.748;48.742;2022-12-10T00:41:17;100033.81;;;-8.74;93.54
65280;BME280;51878;55.748;48.742;2022-12-10T00:43:44;100024.22;;;-8.75;93.77
65280;BME280;51878;55.748;48.742;2022-12-10T00:46:14;99932.66;;;-9.12;94.19
65280;BME280;51878;55.748;48.742;2022-12-10T00:48:41;99984.34;;;-8.88;94.52
65280;BME280;51878;55.748;48.742;2022-12-10T00:51:14;99943.03;;;-9.09;93.98
65280;BME280;51878;55.748;48.742;2022-12-10T00:53:43;99992.28;;;-8.89;94.64
65280;BME280;51878;55.748;48.742;2022-12-10T00:56:13;99994.75;;;-8.85;94.06
65280;BME280;51878;55.748;48.742;2022-12-10T00:58:41;99927.41;;;-9.12;94.44
65280;BME280;51878;55.748;48.742;2022-12-10T01:01:16;99912.53;;;-9.13;94.43
65280;BME280;51878;55.748;48.742;2022-12-10T01:03:45;99875.66;;;-9.36;94.15
65280;BME280;51878;55.748;48.742;2022-12-10T01:06:36;99964.25;;;-8.89;94.51
65280;BME280;51878;55.748;48.742;2022-12-10T01:09:05;99905.59;;;-9.15;94.85
65280;BME280;51878;55.748;48.742;2022-12-10T01:11:36;99917.56;;;-9.06;94.71
65280;BME280;51878;55.748;48.742;2022-12-10T01:14:05;99958.63;;;-8.78;94.41
65280;BME280;51878;55.748;48.742;2022-12-10T01:16:33;99944.81;;;-8.83;95.04
65280;BME280;51878;55.748;48.742;2022-12-10T01:19:00;99907.94;;;-9.07;95.01
65280;BME280;51878;55.748;48.742;2022-12-10T01:21:28;99870.09;;;-9.26;94.68
65280;BME280;51878;55.748;48.742;2022-12-10T01:23:57;99928.13;;;-8.82;95.15
65280;BME280;51878;55.748;48.742;2022-12-10T01:26:27;99814.97;;;-9.51;94.38
65280;BME280;51878;55.748;48.742;2022-12-10T01:28:54;99949.16;;;-9.09;95.06
65280;BME280;51878;55.748;48.742;2022-12-10T01:31:25;99935.53;;;-8.68;95.37
65280;BME280;51878;55.748;48.742;2022-12-10T01:33:52;99854.19;;;-9.22;94.82
65280;BME280;51878;55.748;48.742;2022-12-10T01:36:23;99941.66;;;-8.68;94.57
65280;BME280;51878;55.748;48.742;2022-12-10T01:38:51;99906.53;;;-8.90;94.71
65280;BME280;51878;55.748;48.742;2022-12-10T01:41:25;99944.53;;;-8.76;94.70
65280;BME280;51878;55.748;48.742;2022-12-10T01:46:36;99884.09;;;-9.01;95.07
65280;BME280;51878;55.748;48.742;2022-12-10T01:49:06;99906.09;;;-8.78;95.60
65280;BME280;51878;55.748;48.742;2022-12-10T01:51:37;99909.69;;;-8.81;95.56
65280;BME280;51878;55.748;48.742;2022-12-10T01:54:08;99920.94;;;-8.77;95.57
65280;BME280;51878;55.748;48.742;2022-12-10T01:56:38;99900.78;;;-8.77;95.62
65280;BME280;51878;55.748;48.742;2022-12-10T01:59:07;99893.47;;;-8.94;96.26
65280;BME280;51878;55.748;48.742;2022-12-10T02:04:29;99924.16;;;-8.69;95.68
65280;BME280;51878;55.748;48.742;2022-12-10T02:07:15;99917.19;;;-8.70;96.37
65280;BME280;51878;55.748;48.742;2022-12-10T02:12:57;99890.91;;;-8.70;97.10
65280;BME280;51878;55.748;48.742;2022-12-10T02:15:29;99884.16;;;-8.77;96.66
65280;BME280;51878;55.748;48.742;2022-12-10T02:20:36;99848.53;;;-9.09;96.56
65280;BME280;51878;55.748;48.742;2022-12-10T02:23:10;99902.81;;;-8.85;96.78
65280;BME280;51878;55.748;48.742;2022-12-10T02:25:53;99826.03;;;-9.17;97.38
65280;BME280;51878;55.748;48.742;2022-12-10T02:28:34;99843.06;;;-9.03;96.96
65280;BME280;51878;55.748;48.742;2022-12-10T02:31:04;99858.81;;;-9.03;97.07
65280;BME280;51878;55.748;48.742;2022-12-10T02:33:33;99935.94;;;-8.81;96.82
65280;BME280;51878;55.748;48.742;2022-12-10T02:36:05;99856.00;;;-8.74;97.86
65280;BME280;51878;55.748;48.742;2022-12-10T02:38:36;99843.06;;;-8.80;97.99
65280;BME280;51878;55.748;48.742;2022-12-10T02:41:10;99781.94;;;-9.32;97.54
65280;BME280;51878;55.748;48.742;2022-12-10T02:43:39;99876.81;;;-8.67;97.39
65280;BME280;51878;55.748;48.742;2022-12-10T02:46:09;99895.97;;;-8.64;97.81
65280;BME280;51878;55.748;48.742;2022-12-10T02:48:36;99885.34;;;-8.86;97.92
65280;BME280;51878;55.748;48.742;2022-12-10T02:51:03;99860.09;;;-8.90;98.40
65280;BME280;51878;55.748;48.742;2022-12-10T02:53:30;99863.31;;;-8.82;98.17
65280;BME280;51878;55.748;48.742;2022-12-10T03:01:56;99920.84;;;-8.74;100.00
65280;BME280;51878;55.748;48.742;2022-12-10T03:07:14;99902.66;;;-9.05;100.00
65280;BME280;51878;55.748;48.742;2022-12-10T03:09:58;99896.50;;;-8.79;100.00
65280;BME280;51878;55.748;48.742;2022-12-10T03:12:39;99886.16;;;-8.84;100.00
65280;BME280;51878;55.748;48.742;2022-12-10T03:15:12;99652.25;;;-10.00;100.00
65280;BME280;51878;55.748;48.742;2022-12-10T03:17:42;99901.00;;;-8.83;100.00
65280;BME280;51878;55.748;48.742;2022-12-10T03:20:13;99882.00;;;-8.91;100.00
65280;BME280;51878;55.748;48.742;2022-12-10T03:22:43;99873.28;;;-8.91;100.00
65280;BME280;51878;55.748;48.742;2022-12-10T03:25:18;99879.50;;;-8.94;100.00
65280;BME280;51878;55.748;48.742;2022-12-10T03:27:47;99836.16;;;-9.06;100.00
65280;BME280;51878;55.748;48.742;2022-12-10T03:30:16;99811.06;;;-9.15;100.00
65280;BME280;51878;55.748;48.742;2022-12-10T03:32:44;99786.28;;;-9.32;100.00
65280;BME280;51878;55.748;48.742;2022-12-10T03:35:13;99879.66;;;-8.99;100.00
65280;BME280;51878;55.748;48.742;2022-12-10T03:37:41;99821.13;;;-9.02;100.00
65280;BME280;51878;55.748;48.742;2022-12-10T03:40:09;99821.97;;;-9.02;100.00
65280;BME280;51878;55.748;48.742;2022-12-10T03:42:39;99802.66;;;-8.99;100.00
65280;BME280;51878;55.748;48.742;2022-12-10T03:45:07;99839.34;;;-8.98;100.00
65280;BME280;51878;55.748;48.742;2022-12-10T03:47:35;99726.09;;;-9.37;100.00
65280;BME280;51878;55.748;48.742;2022-12-10T03:50:02;99814.66;;;-8.92;100.00
65280;BME280;51878;55.748;48.742;2022-12-10T03:52:29;99839.94;;;-8.89;100.00
65280;BME280;51878;55.748;48.742;2022-12-10T03:54:56;99743.28;;;-9.28;100.00
65280;BME280;51878;55.748;48.742;2022-12-10T03:57:23;99788.47;;;-9.19;100.00
65280;BME280;51878;55.748;48.742;2022-12-10T03:59:57;99723.28;;;-9.56;100.00
65280;BME280;51878;55.748;48.742;2022-12-10T04:02:35;99816.69;;;-9.00;100.00
65280;BME280;51878;55.748;48.742;2022-12-10T04:05:02;99756.66;;;-9.34;100.00
65280;BME280;51878;55.748;48.742;2022-12-10T04:07:31;99826.13;;;-8.95;100.00
65280;BME280;51878;55.748;48.742;2022-12-10T04:09:58;99745.16;;;-9.57;100.00
65280;BME280;51878;55.748;48.742;2022-12-10T04:12:26;99878.69;;;-8.96;100.00
65280;BME280;51878;55.748;48.742;2022-12-10T04:14:53;99762.44;;;-9.50;100.00
65280;BME280;51878;55.748;48.742;2022-12-10T04:17:38;99711.06;;;-9.57;100.00
65280;BME280;51878;55.748;48.742;2022-12-10T04:20:06;99797.94;;;-9.15;100.00
65280;BME280;51878;55.748;48.742;2022-12-10T04:22:52;99839.78;;;-8.85;100.00
65280;BME280;51878;55.748;48.742;2022-12-10T04:25:38;99751.88;;;-9.23;100.00
65280;BME280;51878;55.748;48.742;2022-12-10T04:28:24;99863.88;;;-8.74;100.00
65280;BME280;51878;55.748;48.742;2022-12-10T04:30:51;99841.09;;;-8.73;100.00
65280;BME280;51878;55.748;48.742;2022-12-10T04:33:18;99807.41;;;-8.85;100.00
65280;BME280;51878;55.748;48.742;2022-12-10T04:35:45;99765.50;;;-9.13;100.00
65280;BME280;51878;55.748;48.742;2022-12-10T04:38:12;99754.34;;;-9.19;100.00
65280;BME280;51878;55.748;48.742;2022-12-10T04:40:39;99839.44;;;-8.76;100.00
65280;BME280;51878;55.748;48.742;2022-12-10T04:43:06;99825.31;;;-8.73;100.00
65280;BME280;51878;55.748;48.742;2022-12-10T04:45:34;99823.03;;;-8.82;100.00
65280;BME280;51878;55.748;48.742;2022-12-10T04:48:02;99873.22;;;-8.65;100.00
65280;BME280;51878;55.748;48.742;2022-12-10T04:50:30;99780.13;;;-9.06;100.00
65280;BME280;51878;55.748;48.742;2022-12-10T04:52:57;99817.63;;;-8.78;100.00
65280;BME280;51878;55.748;48.742;2022-12-10T04:55:24;99788.47;;;-8.95;100.00
65280;BME280;51878;55.748;48.742;2022-12-10T04:57:51;99833.84;;;-8.66;100.00
65280;BME280;51878;55.748;48.742;2022-12-10T05:00:19;99809.84;;;-8.81;100.00
65280;BME280;51878;55.748;48.742;2022-12-10T05:02:48;99672.41;;;-9.52;100.00
65280;BME280;51878;55.748;48.742;2022-12-10T05:05:15;99795.69;;;-8.77;100.00
65280;BME280;51878;55.748;48.742;2022-12-10T05:07:42;99847.94;;;-8.69;100.00
65280;BME280;51878;55.748;48.742;2022-12-10T05:10:09;99772.78;;;-8.97;100.00
65280;BME280;51878;55.748;48.742;2022-12-10T05:12:41;99873.97;;;-8.61;100.00
65280;BME280;51878;55.748;48.742;2022-12-10T05:15:08;99875.75;;;-8.62;100.00
65280;BME280;51878;55.748;48.742;2022-12-10T05:17:35;99844.13;;;-8.60;100.00
65280;BME280;51878;55.748;48.742;2022-12-10T05:20:03;99818.19;;;-8.69;100.00
65280;BME280;51878;55.748;48.742;2022-12-10T05:22:30;99762.75;;;-9.10;100.00
65280;BME280;51878;55.748;48.742;2022-12-10T05:25:16;99811.41;;;-8.75;100.00
65280;BME280;51878;55.748;48.742;2022-12-10T05:27:43;99828.44;;;-8.62;100.00
65280;BME280;51878;55.748;48.742;2022-12-10T05:30:10;99803.97;;;-8.87;100.00
65280;BME280;51878;55.748;48.742;2022-12-10T05:32:37;99784.81;;;-8.66;100.00
65280;BME280;51878;55.748;48.742;2022-12-10T05:35:05;99830.44;;;-8.68;100.00
65280;BME280;51878;55.748;48.742;2022-12-10T05:37:33;99781.19;;;-8.87;100.00
65280;BME280;51878;55.748;48.742;2022-12-10T05:39:59;99804.53;;;-8.56;100.00
65280;BME280;51878;55.748;48.742;2022-12-10T05:42:28;99814.34;;;-8.59;100.00
65280;BME280;51878;55.748;48.742;2022-12-10T05:44:55;99816.88;;;-8.81;100.00
65280;BME280;51878;55.748;48.742;2022-12-10T05:47:22;99789.47;;;-8.74;100.00
65280;BME280;51878;55.748;48.742;2022-12-10T05:49:49;99761.81;;;-9.08;100.00
65280;BME280;51878;55.748;48.742;2022-12-10T05:52:18;99825.19;;;-8.68;100.00
65280;BME280;51878;55.748;48.742;2022-12-10T05:54:45;99835.56;;;-8.65;100.00
65280;BME280;51878;55.748;48.742;2022-12-10T05:57:12;99847.69;;;-8.61;100.00
65280;BME280;51878;55.748;48.742;2022-12-10T05:59:39;99818.06;;;-8.66;100.00
65280;BME280;51878;55.748;48.742;2022-12-10T06:02:06;99797.34;;;-8.74;100.00
65280;BME280;51878;55.748;48.742;2022-12-10T06:04:33;99765.72;;;-8.95;100.00
65280;BME280;51878;55.748;48.742;2022-12-10T06:07:00;99796.28;;;-8.68;100.00
65280;BME280;51878;55.748;48.742;2022-12-10T06:09:30;99766.16;;;-9.07;100.00
65280;BME280;51878;55.748;48.742;2022-12-10T06:11:58;99796.59;;;-8.78;100.00
65280;BME280;51878;55.748;48.742;2022-12-10T06:14:25;99839.03;;;-8.65;100.00
65280;BME280;51878;55.748;48.742;2022-12-10T06:16:52;99705.19;;;-9.15;100.00
65280;BME280;51878;55.748;48.742;2022-12-10T06:19:19;99729.03;;;-8.98;100.00
65280;BME280;51878;55.748;48.742;2022-12-10T06:21:48;99809.88;;;-8.57;100.00
65280;BME280;51878;55.748;48.742;2022-12-10T06:24:17;99796.78;;;-8.59;100.00
65280;BME280;51878;55.748;48.742;2022-12-10T06:26:44;99814.66;;;-8.45;100.00
65280;BME280;51878;55.748;48.742;2022-12-10T06:29:11;99806.91;;;-8.48;100.00
65280;BME280;51878;55.748;48.742;2022-12-10T06:31:38;99796.16;;;-8.42;100.00
65280;BME280;51878;55.748;48.742;2022-12-10T06:34:05;99751.03;;;-8.77;100.00
65280;BME280;51878;55.748;48.742;2022-12-10T06:36:32;99798.84;;;-8.43;100.00
65280;BME280;51878;55.748;48.742;2022-12-10T06:38:59;99707.41;;;-9.28;100.00
65280;BME280;51878;55.748;48.742;2022-12-10T06:41:26;99820.03;;;-8.48;100.00
65280;BME280;51878;55.748;48.742;2022-12-10T06:43:53;99889.84;;;-8.41;100.00
65280;BME280;51878;55.748;48.742;2022-12-10T06:46:21;99764.00;;;-8.96;100.00
65280;BME280;51878;55.748;48.742;2022-12-10T06:48:48;99840.94;;;-8.45;100.00
65280;BME280;51878;55.748;48.742;2022-12-10T06:51:15;99761.94;;;-8.64;100.00
65280;BME280;51878;55.748;48.742;2022-12-10T06:53:44;99800.88;;;-8.52;100.00
65280;BME280;51878;55.748;48.742;2022-12-10T06:56:14;99737.47;;;-8.88;100.00
65280;BME280;51878;55.748;48.742;2022-12-10T06:58:41;99732.03;;;-8.83;100.00
65280;BME280;51878;55.748;48.742;2022-12-10T07:03:43;99755.44;;;-8.77;100.00
65280;BME280;51878;55.748;48.742;2022-12-10T07:06:11;99788.78;;;-8.56;100.00
65280;BME280;51878;55.748;48.742;2022-12-10T07:08:39;99823.69;;;-8.52;100.00
65280;BME280;51878;55.748;48.742;2022-12-10T07:11:09;99735.06;;;-8.70;100.00
65280;BME280;51878;55.748;48.742;2022-12-10T07:13:36;99744.66;;;-8.47;100.00
65280;BME280;51878;55.748;48.742;2022-12-10T07:16:12;99780.63;;;-8.48;100.00
65280;BME280;51878;55.748;48.742;2022-12-10T07:18:42;99721.13;;;-8.73;100.00
65280;BME280;51878;55.748;48.742;2022-12-10T07:21:19;99784.22;;;-8.50;100.00
65280;BME280;51878;55.748;48.742;2022-12-10T07:23:48;99807.25;;;-8.35;100.00
65280;BME280;51878;55.748;48.742;2022-12-10T07:26:36;99682.31;;;-8.88;100.00
65280;BME280;51878;55.748;48.742;2022-12-10T07:29:04;99783.69;;;-8.38;100.00
65280;BME280;51878;55.748;48.742;2022-12-10T07:31:31;99769.97;;;-8.45;100.00
65280;BME280;51878;55.748;48.742;2022-12-10T07:33:59;99723.34;;;-8.62;100.00
65280;BME280;51878;55.748;48.742;2022-12-10T07:36:27;99784.22;;;-8.28;100.00
65280;BME280;51878;55.748;48.742;2022-12-10T07:38:54;99713.69;;;-8.61;100.00
65280;BME280;51878;55.748;48.742;2022-12-10T07:41:23;99573.72;;;-9.32;100.00
65280;BME280;51878;55.748;48.742;2022-12-10T07:43:50;99682.25;;;-8.64;100.00
65280;BME280;51878;55.748;48.742;2022-12-10T07:46:22;99806.06;;;-8.04;100.00
65280;BME280;51878;55.748;48.742;2022-12-10T07:48:50;99749.66;;;-8.19;100.00
65280;BME280;51878;55.748;48.742;2022-12-10T07:51:19;99798.41;;;-8.11;100.00
65280;BME280;51878;55.748;48.742;2022-12-10T07:53:48;99802.69;;;-8.08;100.00
65280;BME280;51878;55.748;48.742;2022-12-10T07:56:15;99780.44;;;-7.99;100.00
65280;BME280;51878;55.748;48.742;2022-12-10T07:58:43;99822.94;;;-8.10;100.00
65280;BME280;51878;55.748;48.742;2022-12-10T08:01:24;99783.28;;;-8.27;100.00
65280;BME280;51878;55.748;48.742;2022-12-10T08:03:54;99755.16;;;-8.25;100.00
65280;BME280;51878;55.748;48.742;2022-12-10T08:06:26;99751.38;;;-8.18;100.00
65280;BME280;51878;55.748;48.742;2022-12-10T08:08:53;99763.22;;;-8.30;100.00
65280;BME280;51878;55.748;48.742;2022-12-10T08:11:22;99648.44;;;-8.96;100.00
65280;BME280;51878;55.748;48.742;2022-12-10T08:13:49;99773.72;;;-8.06;100.00
65280;BME280;51878;55.748;48.742;2022-12-10T08:16:23;99730.75;;;-8.29;100.00
65280;BME280;51878;55.748;48.742;2022-12-10T08:18:53;99786.53;;;-7.99;100.00
65280;BME280;51878;55.748;48.742;2022-12-10T08:21:23;99774.97;;;-7.95;100.00
65280;BME280;51878;55.748;48.742;2022-12-10T08:23:50;99606.41;;;-8.96;100.00
65280;BME280;51878;55.748;48.742;2022-12-10T08:26:20;99743.75;;;-8.24;100.00
65280;BME280;51878;55.748;48.742;2022-12-10T08:28:50;99732.53;;;-8.29;100.00
65280;BME280;51878;55.748;48.742;2022-12-10T08:31:19;99802.88;;;-7.91;100.00
65280;BME280;51878;55.748;48.742;2022-12-10T08:33:51;99777.47;;;-7.92;100.00
65280;BME280;51878;55.748;48.742;2022-12-10T08:36:19;99749.06;;;-8.04;100.00
65280;BME280;51878;55.748;48.742;2022-12-10T08:38:46;99757.59;;;-7.99;100.00
65280;BME280;51878;55.748;48.742;2022-12-10T08:41:21;99700.94;;;-8.28;100.00
65280;BME280;51878;55.748;48.742;2022-12-10T08:43:48;99766.94;;;-7.92;100.00
65280;BME280;51878;55.748;48.742;2022-12-10T08:46:20;99780.19;;;-7.93;100.00
65280;BME280;51878;55.748;48.742;2022-12-10T08:48:52;99713.56;;;-8.38;100.00
65280;BME280;51878;55.748;48.742;2022-12-10T08:51:21;99715.59;;;-8.22;100.00
65280;BME280;51878;55.748;48.742;2022-12-10T08:53:53;99701.84;;;-8.29;100.00
65280;BME280;51878;55.748;48.742;2022-12-10T08:56:40;99716.94;;;-8.34;100.00
65280;BME280;51878;55.748;48.742;2022-12-10T08:59:07;99692.38;;;-8.33;100.00
65280;BME280;51878;55.748;48.742;2022-12-10T09:01:34;99635.25;;;-8.94;100.00
65280;BME280;51878;55.748;48.742;2022-12-10T09:04:01;99711.31;;;-8.69;100.00
65280;BME280;51878;55.748;48.742;2022-12-10T09:06:28;99717.28;;;-8.42;100.00
65280;BME280;51878;55.748;48.742;2022-12-10T09:08:57;99761.28;;;-8.03;100.00
65280;BME280;51878;55.748;48.742;2022-12-10T09:11:36;99791.56;;;-7.93;100.00
65280;BME280;51878;55.748;48.742;2022-12-10T09:14:05;99688.22;;;-8.39;100.00
65280;BME280;51878;55.748;48.742;2022-12-10T09:16:40;99703.13;;;-8.39;100.00
65280;BME280;51878;55.748;48.742;2022-12-10T09:19:09;99746.19;;;-7.98;100.00
65280;BME280;51878;55.748;48.742;2022-12-10T09:21:41;99757.03;;;-7.85;100.00
65280;BME280;51878;55.748;48.742;2022-12-10T09:24:08;99662.03;;;-8.40;100.00
65280;BME280;51878;55.748;48.742;2022-12-10T09:26:36;99687.53;;;-8.22;100.00
65280;BME280;51878;55.748;48.742;2022-12-10T09:29:10;99663.00;;;-8.43;100.00
65280;BME280;51878;55.748;48.742;2022-12-10T09:31:42;99724.44;;;-8.03;100.00
65280;BME280;51878;55.748;48.742;2022-12-10T09:34:15;99624.41;;;-8.42;100.00
65280;BME280;51878;55.748;48.742;2022-12-10T09:36:45;99764.38;;;-7.71;100.00
65280;BME280;51878;55.748;48.742;2022-12-10T09:39:18;99713.69;;;-7.97;100.00
65280;BME280;51878;55.748;48.742;2022-12-10T09:47:19;99713.69;;;-7.97;100.00
65280;BME280;51878;55.748;48.742;2022-12-10T09:50:11;99590.47;;;-8.69;100.00
65280;BME280;51878;55.748;48.742;2022-12-10T09:52:46;99693.94;;;-8.07;100.00
65280;BME280;51878;55.748;48.742;2022-12-10T09:55:22;99728.38;;;-7.91;100.00
65280;BME280;51878;55.748;48.742;2022-12-10T09:57:52;99595.00;;;-8.73;100.00
65280;BME280;51878;55.748;48.742;2022-12-10T10:00:40;99695.91;;;-8.12;100.00
65280;BME280;51878;55.748;48.742;2022-12-10T10:03:13;99737.25;;;-7.73;100.00
65280;BME280;51878;55.748;48.742;2022-12-10T10:05:46;99764.69;;;-7.79;100.00
65280;BME280;51878;55.748;48.742;2022-12-10T10:09:02;99676.03;;;-8.19;100.00
65280;BME280;51878;55.748;48.742;2022-12-10T10:11:48;99637.56;;;-8.42;100.00
65280;BME280;51878;55.748;48.742;2022-12-10T10:14:26;99649.63;;;-8.38;100.00
65280;BME280;51878;55.748;48.742;2022-12-10T10:17:04;99589.25;;;-8.82;100.00
65280;BME280;51878;55.748;48.742;2022-12-10T10:19:38;99670.38;;;-8.31;100.00
65280;BME280;51878;55.748;48.742;2022-12-10T10:22:41;99778.28;;;-7.90;100.00
65280;BME280;51878;55.748;48.742;2022-12-10T10:25:18;99741.97;;;-8.02;100.00
65280;BME280;51878;55.748;48.742;2022-12-10T10:27:45;99622.88;;;-8.68;100.00
65280;BME280;51878;55.748;48.742;2022-12-10T10:30:26;99783.84;;;-7.97;100.00
65280;BME280;51878;55.748;48.742;2022-12-10T10:33:13;99667.28;;;-8.40;100.00
65280;BME280;51878;55.748;48.742;2022-12-10T10:35:44;99810.44;;;-8.05;100.00
65280;BME280;51878;55.748;48.742;2022-12-10T10:40:50;99726.44;;;-8.30;100.00
65280;BME280;51878;55.748;48.742;2022-12-10T10:43:42;99740.66;;;-8.14;100.00
65280;BME280;51878;55.748;48.742;2022-12-10T10:46:30;99703.44;;;-8.25;100.00
65280;BME280;51878;55.748;48.742;2022-12-10T10:49:31;99752.06;;;-8.13;100.00
65280;BME280;51878;55.748;48.742;2022-12-10T10:52:04;99765.13;;;-8.12;100.00
65280;BME280;51878;55.748;48.742;2022-12-10T10:54:38;99729.25;;;-8.13;100.00
65280;BME280;51878;55.748;48.742;2022-12-10T10:57:13;99727.38;;;-8.31;100.00
65280;BME280;51878;55.748;48.742;2022-12-10T10:59:42;99671.53;;;-8.60;100.00
65280;BME280;51878;55.748;48.742;2022-12-10T11:02:35;99739.16;;;-8.19;100.00
65280;BME280;51878;55.748;48.742;2022-12-10T11:07:41;99706.47;;;-8.36;100.00
65280;BME280;51878;55.748;48.742;2022-12-10T11:12:54;99768.53;;;-8.32;100.00
65280;BME280;51878;55.748;48.742;2022-12-10T11:17:51;99743.78;;;-8.26;100.00
65280;BME280;51878;55.748;48.742;2022-12-10T11:20:25;99615.47;;;-9.03;100.00
65280;BME280;51878;55.748;48.742;2022-12-10T11:22:58;99704.84;;;-8.38;100.00
65280;BME280;51878;55.748;48.742;2022-12-10T11:28:32;99738.50;;;-8.24;100.00
65280;BME280;51878;55.748;48.742;2022-12-10T11:31:17;99754.38;;;-8.27;100.00
65280;BME280;51878;55.748;48.742;2022-12-10T11:50:48;99732.47;;;-8.28;100.00
65280;BME280;51878;55.748;48.742;2022-12-10T12:01:13;99747.94;;;-8.20;100.00
65280;BME280;51878;55.748;48.742;2022-12-10T12:06:51;99765.91;;;-8.10;100.00
65280;BME280;51878;55.748;48.742;2022-12-10T12:14:59;99731.97;;;-8.38;100.00
65280;BME280;51878;55.748;48.742;2022-12-10T12:17:34;99751.19;;;-8.14;100.00
65280;BME280;51878;55.748;48.742;2022-12-10T12:20:18;99762.31;;;-8.07;100.00
65280;BME280;51878;55.748;48.742;2022-12-10T12:22:50;99658.34;;;-8.58;100.00
65280;BME280;51878;55.748;48.742;2022-12-10T12:25:39;99710.03;;;-8.37;100.00
65280;BME280;51878;55.748;48.742;2022-12-10T12:30:47;99727.09;;;-8.25;100.00
65280;BME280;51878;55.748;48.742;2022-12-10T12:33:29;99747.41;;;-8.06;100.00
65280;BME280;51878;55.748;48.742;2022-12-10T12:36:11;99731.53;;;-8.05;100.00
65280;BME280;51878;55.748;48.742;2022-12-10T12:38:48;99692.25;;;-8.30;100.00
65280;BME280;51878;55.748;48.742;2022-12-10T12:41:37;99668.13;;;-8.40;100.00
65280;BME280;51878;55.748;48.742;2022-12-10T12:50:24;99752.47;;;-8.02;100.00
65280;BME280;51878;55.748;48.742;2022-12-10T12:52:55;99587.00;;;-8.91;100.00
65280;BME280;51878;55.748;48.742;2022-12-10T12:58:13;99720.22;;;-8.07;100.00
65280;BME280;51878;55.748;48.742;2022-12-10T13:00:46;99731.34;;;-8.00;100.00
65280;BME280;51878;55.748;48.742;2022-12-10T13:05:48;99759.66;;;-7.85;100.00
65280;BME280;51878;55.748;48.742;2022-12-10T13:13:31;99721.38;;;-7.92;100.00
65280;BME280;51878;55.748;48.742;2022-12-10T13:16:46;99733.03;;;-7.77;100.00
65280;BME280;51878;55.748;48.742;2022-12-10T13:32:16;99716.88;;;-7.68;100.00
65280;BME280;51878;55.748;48.742;2022-12-10T13:34:44;99712.53;;;-7.69;100.00
65280;BME280;51878;55.748;48.742;2022-12-10T13:42:39;99708.81;;;-7.65;100.00
65280;BME280;51878;55.748;48.742;2022-12-10T13:45:29;99720.63;;;-7.53;100.00
65280;BME280;51878;55.748;48.742;2022-12-10T13:48:29;99726.53;;;-7.48;100.00
65280;BME280;51878;55.748;48.742;2022-12-10T14:00:21;99723.44;;;-7.37;100.00
65280;BME280;51878;55.748;48.742;2022-12-10T14:03:55;99702.59;;;-7.42;100.00
65280;BME280;51878;55.748;48.742;2022-12-10T14:06:21;99707.84;;;-7.42;100.00
65280;BME280;51878;55.748;48.742;2022-12-10T14:09:12;99732.00;;;-7.32;100.00
65280;BME280;51878;55.748;48.742;2022-12-10T14:14:34;99676.34;;;-7.64;100.00
65280;BME280;51878;55.748;48.742;2022-12-10T14:17:06;99743.19;;;-7.27;100.00
65280;BME280;51878;55.748;48.742;2022-12-10T14:19:36;99667.50;;;-7.63;100.00
65280;BME280;51878;55.748;48.742;2022-12-10T14:22:06;99711.91;;;-7.35;100.00
65280;BME280;51878;55.748;48.742;2022-12-10T14:24:36;99596.34;;;-8.01;100.00
65280;BME280;51878;55.748;48.742;2022-12-10T14:27:16;99635.91;;;-7.82;100.00
65280;BME280;51878;55.748;48.742;2022-12-10T14:29:49;99641.00;;;-7.79;100.00
65280;BME280;51878;55.748;48.742;2022-12-10T14:32:19;99714.69;;;-7.38;100.00
65280;BME280;51878;55.748;48.742;2022-12-10T14:34:52;99730.28;;;-7.33;100.00
65280;BME280;51878;55.748;48.742;2022-12-10T14:37:25;99720.56;;;-7.31;100.00
65280;BME280;51878;55.748;48.742;2022-12-10T14:39:56;99661.19;;;-7.59;100.00
65280;BME280;51878;55.748;48.742;2022-12-10T14:42:24;99658.28;;;-7.53;100.00
65280;BME280;51878;55.748;48.742;2022-12-10T14:44:57;99729.94;;;-7.25;100.00
65280;BME280;51878;55.748;48.742;2022-12-10T14:47:25;99724.97;;;-7.32;100.00
65280;BME280;51878;55.748;48.742;2022-12-10T14:49:55;99668.38;;;-7.62;100.00
65280;BME280;51878;55.748;48.742;2022-12-10T14:52:30;99688.19;;;-7.54;100.00
65280;BME280;51878;55.748;48.742;2022-12-10T14:55:01;99701.59;;;-7.39;100.00
65280;BME280;51878;55.748;48.742;2022-12-10T14:57:39;99672.78;;;-7.63;100.00
65280;BME280;51878;55.748;48.742;2022-12-10T15:00:15;99675.22;;;-7.58;100.00
65280;BME280;51878;55.748;48.742;2022-12-10T15:02:59;99710.34;;;-7.39;100.00
65280;BME280;51878;55.748;48.742;2022-12-10T15:05:29;99713.91;;;-7.40;100.00
65280;BME280;51878;55.748;48.742;2022-12-10T15:08:17;99700.22;;;-7.48;100.00
65280;BME280;51878;55.748;48.742;2022-12-10T15:10:46;99712.53;;;-7.49;100.00
65280;BME280;51878;55.748;48.742;2022-12-10T15:16:01;99730.59;;;-7.41;100.00